sensor_id;sensor_type;location;lat;lon;timestamp;temperature;humidity
21744;DHT22;11034;48.556;9.342;2023-06-10T06:02:40;27.90;99.90
21744;DHT22;11034;48.556;9.342;2023-06-10T06:05:08;28.00;99.90
21744;DHT22;11034;48.556;9.342;2023-06-10T06:07:37;28.10;99.90
21744;DHT22;11034;48.556;9.342;2023-06-10T06:10:05;28.40;99.90
21744;DHT22;11034;48.556;9.342;2023-06-10T06:12:34;28.70;99.90
21744;DHT22;11034;48.556;9.342;2023-06-10T06:15:02;28.70;99.90
21744;DHT22;11034;48.556;9.342;2023-06-10T06:17:30;28.90;99.90
21744;DHT22;11034;48.556;9.342;2023-06-10T06:20:00;29.10;99.90
21744;DHT22;11034;48.556;9.342;2023-06-10T06:22:28;29.10;99.90
21744;DHT22;11034;48.556;9.342;2023-06-10T06:24:56;29.20;99.90
21744;DHT22;11034;48.556;9.342;2023-06-10T06:27:25;29.10;99.90
21744;DHT22;11034;48.556;9.342;2023-06-10T06:29:53;29.10;99.90
21744;DHT22;11034;48.556;9.342;2023-06-10T06:32:21;28.80;99.90
21744;DHT22;11034;48.556;9.342;2023-06-10T06:34:51;29.20;99.90
21744;DHT22;11034;48.556;9.342;2023-06-10T06:37:23;30.00;99.90
21744;DHT22;11034;48.556;9.342;2023-06-10T06:39:52;30.10;99.90
21744;DHT22;11034;48.556;9.342;2023-06-10T06:42:20;30.40;99.90
21744;DHT22;11034;48.556;9.342;2023-06-10T06:44:48;30.30;99.90
21744;DHT22;11034;48.556;9.342;2023-06-10T06:47:16;30.20;99.90
21744;DHT22;11034;48.556;9.342;2023-06-10T06:49:47;29.70;99.90
21744;DHT22;11034;48.556;9.342;2023-06-10T06:52:15;29.70;99.90
21744;DHT22;11034;48.556;9.342;2023-06-10T06:54:45;29.20;99.90
21744;DHT22;11034;48.556;9.342;2023-06-10T06:57:13;29.10;99.90
21744;DHT22;11034;48.556;9.342;2023-06-10T06:59:41;28.50;99.90
21744;DHT22;11034;48.556;9.342;2023-06-10T07:02:09;28.30;99.90
21744;DHT22;11034;48.556;9.342;2023-06-10T07:04:37;28.10;99.90
21744;DHT22;11034;48.556;9.342;2023-06-10T07:07:07;29.00;99.90
21744;DHT22;11034;48.556;9.342;2023-06-10T07:09:36;28.40;99.90
21744;DHT22;11034;48.556;9.342;2023-06-10T07:12:07;28.80;99.90
21744;DHT22;11034;48.556;9.342;2023-06-10T07:14:35;28.60;99.90
21744;DHT22;11034;48.556;9.342;2023-06-10T07:17:03;28.70;99.90
21744;DHT22;11034;48.556;9.342;2023-06-10T07:19:32;28.80;99.90
21744;DHT22;11034;48.556;9.342;2023-06-10T07:22:00;28.70;99.90
21744;DHT22;11034;48.556;9.342;2023-06-10T07:24:28;28.80;99.90
21744;DHT22;11034;48.556;9.342;2023-06-10T07:26:56;28.90;99.90
21744;DHT22;11034;48.556;9.342;2023-06-10T07:29:25;28.80;99.90
21744;DHT22;11034;48.556;9.342;2023-06-10T07:31:53;28.20;99.90
21744;DHT22;11034;48.556;9.342;2023-06-10T07:34:21;27.40;99.90
21744;DHT22;11034;48.556;9.342;2023-06-10T07:36:49;27.60;99.90
21744;DHT22;11034;48.556;9.342;2023-06-10T07:39:17;28.20;99.90
21744;DHT22;11034;48.556;9.342;2023-06-10T07:41:45;28.30;99.90
21744;DHT22;11034;48.556;9.342;2023-06-10T07:44:15;28.10;99.90
21744;DHT22;11034;48.556;9.342;2023-06-10T07:46:45;28.20;99.90
21744;DHT22;11034;48.556;9.342;2023-06-10T07:49:13;28.30;99.90
21744;DHT22;11034;48.556;9.342;2023-06-10T07:51:41;28.80;99.90
21744;DHT22;11034;48.556;9.342;2023-06-10T07:54:09;28.10;99.90
21744;DHT22;11034;48.556;9.342;2023-06-10T07:56:39;26.80;99.90
21744;DHT22;11034;48.556;9.342;2023-06-10T07:59:07;26.90;99.90
21744;DHT22;11034;48.556;9.342;2023-06-10T16:02:34;26.60;99.90
21744;DHT22;11034;48.556;9.342;2023-06-10T16:05:04;26.60;99.90
21744;DHT22;11034;48.556;9.342;2023-06-10T16:07:32;26.60;99.90
21744;DHT22;11034;48.556;9.342;2023-06-10T16:10:00;26.60;99.90
21744;DHT22;11034;48.556;9.342;2023-06-10T16:12:29;26.60;99.90
21744;DHT22;11034;48.556;9.342;2023-06-10T16:14:57;26.50;99.90
21744;DHT22;11034;48.556;9.342;2023-06-10T16:17:25;26.50;99.90
21744;DHT22;11034;48.556;9.342;2023-06-10T16:19:54;26.50;99.90
21744;DHT22;11034;48.556;9.342;2023-06-10T16:22:22;26.40;99.90
21744;DHT22;11034;48.556;9.342;2023-06-10T16:24:50;26.60;99.90
21744;DHT22;11034;48.556;9.342;2023-06-10T16:27:18;26.60;99.90
21744;DHT22;11034;48.556;9.342;2023-06-10T16:29:47;26.60;99.90
21744;DHT22;11034;48.556;9.342;2023-06-10T16:32:15;26.60;99.90
21744;DHT22;11034;48.556;9.342;2023-06-10T16:34:43;26.50;99.90
21744;DHT22;11034;48.556;9.342;2023-06-10T16:37:12;26.50;99.90
21744;DHT22;11034;48.556;9.342;2023-06-10T16:39:40;26.50;99.90
21744;DHT22;11034;48.556;9.342;2023-06-10T16:42:08;26.30;99.90
21744;DHT22;11034;48.556;9.342;2023-06-10T16:44:37;26.40;99.90
21744;DHT22;11034;48.556;9.342;2023-06-10T16:47:05;26.50;99.90
21744;DHT22;11034;48.556;9.342;2023-06-10T16:49:34;26.70;99.90
21744;DHT22;11034;48.556;9.342;2023-06-10T16:52:03;26.70;99.90
21744;DHT22;11034;48.556;9.342;2023-06-10T16:54:33;26.50;99.90
21744;DHT22;11034;48.556;9.342;2023-06-10T16:57:01;26.60;99.90
21744;DHT22;11034;48.556;9.342;2023-06-10T16:59:29;26.70;99.90
21744;DHT22;11034;48.556;9.342;2023-06-10T17:01:57;26.70;99.90
21744;DHT22;11034;48.556;9.342;2023-06-10T17:04:29;26.50;99.90
21744;DHT22;11034;48.556;9.342;2023-06-10T17:06:57;26.30;99.90
21744;DHT22;11034;48.556;9.342;2023-06-10T17:09:26;26.20;99.90
21744;DHT22;11034;48.556;9.342;2023-06-10T17:11:55;26.10;99.90
21744;DHT22;11034;48.556;9.342;2023-06-10T17:14:23;26.10;99.90
21744;DHT22;11034;48.556;9.342;2023-06-10T17:16:52;26.00;99.90
21744;DHT22;11034;48.556;9.342;2023-06-10T17:19:20;26.00;99.90
21744;DHT22;11034;48.556;9.342;2023-06-10T17:21:48;26.00;99.90
21744;DHT22;11034;48.556;9.342;2023-06-10T17:24:16;26.30;99.90
21744;DHT22;11034;48.556;9.342;2023-06-10T17:26:44;26.70;99.90
21744;DHT22;11034;48.556;9.342;2023-06-10T17:29:15;27.00;99.90
21744;DHT22;11034;48.556;9.342;2023-06-10T17:31:43;27.00;99.90
21744;DHT22;11034;48.556;9.342;2023-06-10T17:34:14;26.80;99.90
21744;DHT22;11034;48.556;9.342;2023-06-10T17:36:42;26.70;99.90
21744;DHT22;11034;48.556;9.342;2023-06-10T17:39:11;26.70;99.90
21744;DHT22;11034;48.556;9.342;2023-06-10T17:41:39;26.40;99.90
21744;DHT22;11034;48.556;9.342;2023-06-10T17:44:07;26.20;99.90
21744;DHT22;11034;48.556;9.342;2023-06-10T17:46:37;26.20;99.90
21744;DHT22;11034;48.556;9.342;2023-06-10T17:49:05;26.20;99.90
21744;DHT22;11034;48.556;9.342;2023-06-10T17:51:33;26.10;99.90
21744;DHT22;11034;48.556;9.342;2023-06-10T17:54:01;25.70;99.90
21744;DHT22;11034;48.556;9.342;2023-06-10T17:56:29;25.40;99.90
21744;DHT22;11034;48.556;9.342;2023-06-10T17:58:57;25.30;99.90
